sensor_id;sensor_type;location;lat;lon;timestamp;P1;durP1;ratioP1;P2;durP2;ratioP2
77287;SDS011;66345;42.694;23.346;2023-07-13T00:00:37;8.27;;;3.85;;
77287;SDS011;66345;42.694;23.346;2023-07-13T00:03:03;7.77;;;3.80;;
77287;SDS011;66345;42.694;23.346;2023-07-13T00:05:29;6.85;;;3.58;;
77287;SDS011;66345;42.694;23.346;2023-07-13T00:07:55;8.73;;;3.77;;
77287;SDS011;66345;42.694;23.346;2023-07-13T00:10:21;7.87;;;3.60;;
77287;SDS011;66345;42.694;23.346;2023-07-13T00:12:47;9.45;;;4.05;;
77287;SDS011;66345;42.694;23.346;2023-07-13T00:15:18;8.18;;;3.88;;
77287;SDS011;66345;42.694;23.346;2023-07-13T00:17:48;11.27;;;3.90;;
77287;SDS011;66345;42.694;23.346;2023-07-13T00:20:17;7.85;;;4.28;;
77287;SDS011;66345;42.694;23.346;2023-07-13T00:22:42;11.20;;;4.50;;
77287;SDS011;66345;42.694;23.346;2023-07-13T00:25:10;9.80;;;4.27;;
77287;SDS011;66345;42.694;23.346;2023-07-13T00:27:36;8.15;;;4.22;;
77287;SDS011;66345;42.694;23.346;2023-07-13T00:30:02;8.02;;;4.57;;
77287;SDS011;66345;42.694;23.346;2023-07-13T00:32:28;8.15;;;3.92;;
77287;SDS011;66345;42.694;23.346;2023-07-13T00:34:54;7.63;;;3.77;;
77287;SDS011;66345;42.694;23.346;2023-07-13T00:37:21;9.65;;;5.13;;
77287;SDS011;66345;42.694;23.346;2023-07-13T00:39:47;10.03;;;4.93;;
77287;SDS011;66345;42.694;23.346;2023-07-13T00:42:13;10.30;;;5.00;;
77287;SDS011;66345;42.694;23.346;2023-07-13T00:44:38;7.93;;;4.38;;
77287;SDS011;66345;42.694;23.346;2023-07-13T00:47:05;12.90;;;5.00;;
77287;SDS011;66345;42.694;23.346;2023-07-13T00:49:31;9.88;;;4.68;;
77287;SDS011;66345;42.694;23.346;2023-07-13T00:51:59;7.45;;;4.63;;
77287;SDS011;66345;42.694;23.346;2023-07-13T00:54:32;9.07;;;4.95;;
77287;SDS011;66345;42.694;23.346;2023-07-13T00:57:04;11.97;;;5.30;;
77287;SDS011;66345;42.694;23.346;2023-07-13T00:59:33;8.18;;;4.85;;
77287;SDS011;66345;42.694;23.346;2023-07-13T01:02:00;9.18;;;5.28;;
77287;SDS011;66345;42.694;23.346;2023-07-13T01:04:27;9.63;;;5.45;;
77287;SDS011;66345;42.694;23.346;2023-07-13T01:06:52;10.60;;;5.27;;
77287;SDS011;66345;42.694;23.346;2023-07-13T01:09:19;9.45;;;5.15;;
77287;SDS011;66345;42.694;23.346;2023-07-13T01:11:45;7.97;;;5.55;;
77287;SDS011;66345;42.694;23.346;2023-07-13T01:14:12;9.88;;;5.60;;
77287;SDS011;66345;42.694;23.346;2023-07-13T01:16:38;10.83;;;5.17;;
77287;SDS011;66345;42.694;23.346;2023-07-13T01:22:17;9.43;;;5.72;;
77287;SDS011;66345;42.694;23.346;2023-07-13T01:24:44;7.40;;;5.20;;
77287;SDS011;66345;42.694;23.346;2023-07-13T01:27:13;10.63;;;5.37;;
77287;SDS011;66345;42.694;23.346;2023-07-13T01:29:40;10.30;;;5.25;;
77287;SDS011;66345;42.694;23.346;2023-07-13T01:32:09;12.13;;;5.65;;
77287;SDS011;66345;42.694;23.346;2023-07-13T01:34:35;9.75;;;5.57;;
77287;SDS011;66345;42.694;23.346;2023-07-13T01:37:02;8.60;;;4.95;;
77287;SDS011;66345;42.694;23.346;2023-07-13T01:39:28;10.33;;;5.10;;
77287;SDS011;66345;42.694;23.346;2023-07-13T01:41:54;10.25;;;5.00;;
77287;SDS011;66345;42.694;23.346;2023-07-13T01:44:19;10.53;;;5.43;;
77287;SDS011;66345;42.694;23.346;2023-07-13T01:46:45;8.00;;;4.93;;
77287;SDS011;66345;42.694;23.346;2023-07-13T01:49:11;8.55;;;5.30;;
77287;SDS011;66345;42.694;23.346;2023-07-13T01:51:36;12.80;;;5.40;;
77287;SDS011;66345;42.694;23.346;2023-07-13T01:54:02;10.87;;;5.63;;
77287;SDS011;66345;42.694;23.346;2023-07-13T01:56:27;9.07;;;5.20;;
77287;SDS011;66345;42.694;23.346;2023-07-13T01:58:52;7.60;;;4.70;;
77287;SDS011;66345;42.694;23.346;2023-07-13T02:01:18;9.40;;;5.40;;
77287;SDS011;66345;42.694;23.346;2023-07-13T02:03:43;12.87;;;5.97;;
77287;SDS011;66345;42.694;23.346;2023-07-13T02:06:09;9.23;;;5.18;;
77287;SDS011;66345;42.694;23.346;2023-07-13T02:08:34;9.07;;;5.37;;
77287;SDS011;66345;42.694;23.346;2023-07-13T02:11:00;9.43;;;5.33;;
77287;SDS011;66345;42.694;23.346;2023-07-13T02:13:27;10.88;;;5.07;;
77287;SDS011;66345;42.694;23.346;2023-07-13T02:15:53;11.67;;;4.83;;
77287;SDS011;66345;42.694;23.346;2023-07-13T02:18:18;10.90;;;5.73;;
77287;SDS011;66345;42.694;23.346;2023-07-13T02:20:44;12.10;;;6.10;;
77287;SDS011;66345;42.694;23.346;2023-07-13T02:23:10;10.63;;;6.00;;
77287;SDS011;66345;42.694;23.346;2023-07-13T02:25:36;10.88;;;6.03;;
77287;SDS011;66345;42.694;23.346;2023-07-13T02:28:01;9.27;;;5.70;;
77287;SDS011;66345;42.694;23.346;2023-07-13T02:30:28;10.45;;;6.03;;
77287;SDS011;66345;42.694;23.346;2023-07-13T02:32:55;9.77;;;5.72;;
77287;SDS011;66345;42.694;23.346;2023-07-13T02:35:21;10.10;;;5.90;;
77287;SDS011;66345;42.694;23.346;2023-07-13T02:37:46;11.70;;;6.10;;
77287;SDS011;66345;42.694;23.346;2023-07-13T02:40:12;10.97;;;6.23;;
77287;SDS011;66345;42.694;23.346;2023-07-13T02:42:37;11.73;;;6.60;;
77287;SDS011;66345;42.694;23.346;2023-07-13T02:45:03;12.48;;;6.50;;
77287;SDS011;66345;42.694;23.346;2023-07-13T02:47:29;9.80;;;6.20;;
77287;SDS011;66345;42.694;23.346;2023-07-13T02:49:54;12.18;;;6.50;;
77287;SDS011;66345;42.694;23.346;2023-07-13T02:52:19;11.97;;;6.60;;
77287;SDS011;66345;42.694;23.346;2023-07-13T02:54:45;12.27;;;6.80;;
77287;SDS011;66345;42.694;23.346;2023-07-13T02:57:10;11.93;;;7.30;;
77287;SDS011;66345;42.694;23.346;2023-07-13T02:59:36;11.20;;;6.60;;
77287;SDS011;66345;42.694;23.346;2023-07-13T03:02:02;11.53;;;6.80;;
77287;SDS011;66345;42.694;23.346;2023-07-13T03:04:28;11.68;;;6.90;;
77287;SDS011;66345;42.694;23.346;2023-07-13T03:06:53;9.87;;;6.83;;
77287;SDS011;66345;42.694;23.346;2023-07-13T03:09:22;11.30;;;6.50;;
77287;SDS011;66345;42.694;23.346;2023-07-13T03:11:48;11.18;;;6.43;;
77287;SDS011;66345;42.694;23.346;2023-07-13T03:14:13;11.53;;;6.80;;
77287;SDS011;66345;42.694;23.346;2023-07-13T03:16:38;11.27;;;6.80;;
77287;SDS011;66345;42.694;23.346;2023-07-13T03:19:04;13.00;;;6.57;;
77287;SDS011;66345;42.694;23.346;2023-07-13T03:21:30;10.77;;;6.47;;
77287;SDS011;66345;42.694;23.346;2023-07-13T03:23:55;11.27;;;6.93;;
77287;SDS011;66345;42.694;23.346;2023-07-13T03:26:21;11.25;;;5.97;;
77287;SDS011;66345;42.694;23.346;2023-07-13T03:28:46;9.30;;;6.70;;
77287;SDS011;66345;42.694;23.346;2023-07-13T03:31:16;10.33;;;6.27;;
77287;SDS011;66345;42.694;23.346;2023-07-13T03:33:43;12.20;;;7.13;;
77287;SDS011;66345;42.694;23.346;2023-07-13T03:36:12;11.80;;;6.72;;
77287;SDS011;66345;42.694;23.346;2023-07-13T03:38:41;10.67;;;6.43;;
77287;SDS011;66345;42.694;23.346;2023-07-13T03:41:06;9.70;;;6.85;;
77287;SDS011;66345;42.694;23.346;2023-07-13T03:43:32;11.57;;;6.87;;
77287;SDS011;66345;42.694;23.346;2023-07-13T03:45:57;11.90;;;6.70;;
77287;SDS011;66345;42.694;23.346;2023-07-13T03:48:22;9.63;;;6.73;;
77287;SDS011;66345;42.694;23.346;2023-07-13T03:50:48;12.98;;;7.60;;
77287;SDS011;66345;42.694;23.346;2023-07-13T03:53:14;10.20;;;6.63;;
77287;SDS011;66345;42.694;23.346;2023-07-13T03:55:40;12.70;;;7.28;;
77287;SDS011;66345;42.694;23.346;2023-07-13T04:00:51;12.82;;;6.53;;
77287;SDS011;66345;42.694;23.346;2023-07-13T04:03:17;11.43;;;7.20;;
77287;SDS011;66345;42.694;23.346;2023-07-13T04:05:42;11.53;;;6.60;;
77287;SDS011;66345;42.694;23.346;2023-07-13T04:08:08;13.03;;;6.97;;
77287;SDS011;66345;42.694;23.346;2023-07-13T04:10:33;10.40;;;6.85;;
77287;SDS011;66345;42.694;23.346;2023-07-13T04:12:59;10.43;;;6.73;;
77287;SDS011;66345;42.694;23.346;2023-07-13T04:15:24;10.40;;;6.90;;
77287;SDS011;66345;42.694;23.346;2023-07-13T04:17:50;30.03;;;8.00;;
77287;SDS011;66345;42.694;23.346;2023-07-13T04:20:15;12.45;;;7.45;;
77287;SDS011;66345;42.694;23.346;2023-07-13T04:22:41;11.27;;;7.57;;
77287;SDS011;66345;42.694;23.346;2023-07-13T04:25:06;11.30;;;7.60;;
77287;SDS011;66345;42.694;23.346;2023-07-13T04:27:32;11.55;;;7.05;;
77287;SDS011;66345;42.694;23.346;2023-07-13T04:29:57;11.60;;;7.30;;
77287;SDS011;66345;42.694;23.346;2023-07-13T04:32:23;11.67;;;7.00;;
77287;SDS011;66345;42.694;23.346;2023-07-13T04:34:48;11.97;;;7.70;;
77287;SDS011;66345;42.694;23.346;2023-07-13T04:37:18;10.90;;;7.45;;
77287;SDS011;66345;42.694;23.346;2023-07-13T04:39:43;14.20;;;7.47;;
77287;SDS011;66345;42.694;23.346;2023-07-13T04:42:09;25.70;;;8.23;;
77287;SDS011;66345;42.694;23.346;2023-07-13T04:44:34;13.50;;;7.67;;
77287;SDS011;66345;42.694;23.346;2023-07-13T04:46:59;13.53;;;7.43;;
77287;SDS011;66345;42.694;23.346;2023-07-13T04:49:25;11.53;;;7.30;;
77287;SDS011;66345;42.694;23.346;2023-07-13T04:51:50;12.53;;;7.53;;
77287;SDS011;66345;42.694;23.346;2023-07-13T04:54:15;12.40;;;7.90;;
77287;SDS011;66345;42.694;23.346;2023-07-13T04:56:41;15.30;;;8.30;;
77287;SDS011;66345;42.694;23.346;2023-07-13T04:59:06;14.03;;;7.50;;
77287;SDS011;66345;42.694;23.346;2023-07-13T05:01:32;12.93;;;7.53;;
77287;SDS011;66345;42.694;23.346;2023-07-13T05:03:57;15.83;;;8.07;;
77287;SDS011;66345;42.694;23.346;2023-07-13T05:06:24;12.70;;;8.20;;
77287;SDS011;66345;42.694;23.346;2023-07-13T05:08:49;15.03;;;8.00;;
77287;SDS011;66345;42.694;23.346;2023-07-13T05:11:15;14.67;;;8.00;;
77287;SDS011;66345;42.694;23.346;2023-07-13T05:13:40;15.80;;;7.93;;
77287;SDS011;66345;42.694;23.346;2023-07-13T05:16:06;12.60;;;8.10;;
77287;SDS011;66345;42.694;23.346;2023-07-13T05:18:32;14.20;;;7.93;;
77287;SDS011;66345;42.694;23.346;2023-07-13T05:20:59;16.02;;;8.82;;
77287;SDS011;66345;42.694;23.346;2023-07-13T05:23:29;14.88;;;9.10;;
77287;SDS011;66345;42.694;23.346;2023-07-13T05:25:56;13.50;;;8.53;;
77287;SDS011;66345;42.694;23.346;2023-07-13T05:28:21;14.68;;;9.27;;
77287;SDS011;66345;42.694;23.346;2023-07-13T05:30:47;14.53;;;8.60;;
77287;SDS011;66345;42.694;23.346;2023-07-13T05:33:14;14.43;;;9.32;;
77287;SDS011;66345;42.694;23.346;2023-07-13T05:35:39;11.87;;;8.50;;
77287;SDS011;66345;42.694;23.346;2023-07-13T05:38:05;13.02;;;8.32;;
77287;SDS011;66345;42.694;23.346;2023-07-13T05:40:31;11.50;;;8.67;;
77287;SDS011;66345;42.694;23.346;2023-07-13T05:42:56;13.57;;;9.23;;
77287;SDS011;66345;42.694;23.346;2023-07-13T05:45:22;12.50;;;8.63;;
77287;SDS011;66345;42.694;23.346;2023-07-13T05:47:47;13.53;;;9.40;;
77287;SDS011;66345;42.694;23.346;2023-07-13T05:50:13;15.30;;;9.37;;
77287;SDS011;66345;42.694;23.346;2023-07-13T05:52:38;12.27;;;9.40;;
77287;SDS011;66345;42.694;23.346;2023-07-13T05:55:03;15.32;;;9.40;;
77287;SDS011;66345;42.694;23.346;2023-07-13T05:57:30;10.10;;;8.33;;
77287;SDS011;66345;42.694;23.346;2023-07-13T05:59:55;13.65;;;8.93;;
77287;SDS011;66345;42.694;23.346;2023-07-13T06:02:21;16.20;;;10.03;;
77287;SDS011;66345;42.694;23.346;2023-07-13T06:04:46;17.20;;;9.07;;
77287;SDS011;66345;42.694;23.346;2023-07-13T06:07:12;14.33;;;9.37;;
77287;SDS011;66345;42.694;23.346;2023-07-13T06:09:37;12.93;;;9.23;;
77287;SDS011;66345;42.694;23.346;2023-07-13T06:12:03;15.02;;;9.20;;
77287;SDS011;66345;42.694;23.346;2023-07-13T06:14:29;12.80;;;9.00;;
77287;SDS011;66345;42.694;23.346;2023-07-13T06:16:55;12.43;;;9.47;;
77287;SDS011;66345;42.694;23.346;2023-07-13T06:19:20;12.33;;;8.97;;
77287;SDS011;66345;42.694;23.346;2023-07-13T06:21:46;15.53;;;9.73;;
77287;SDS011;66345;42.694;23.346;2023-07-13T06:24:11;11.57;;;9.17;;
77287;SDS011;66345;42.694;23.346;2023-07-13T06:26:37;11.40;;;9.43;;
77287;SDS011;66345;42.694;23.346;2023-07-13T06:29:02;13.00;;;9.30;;
77287;SDS011;66345;42.694;23.346;2023-07-13T06:31:27;13.60;;;9.33;;
77287;SDS011;66345;42.694;23.346;2023-07-13T06:33:53;15.32;;;10.02;;
77287;SDS011;66345;42.694;23.346;2023-07-13T06:36:18;12.70;;;9.97;;
77287;SDS011;66345;42.694;23.346;2023-07-13T06:38:44;12.80;;;10.07;;
77287;SDS011;66345;42.694;23.346;2023-07-13T06:41:09;17.70;;;9.90;;
77287;SDS011;66345;42.694;23.346;2023-07-13T06:43:35;14.90;;;10.48;;
77287;SDS011;66345;42.694;23.346;2023-07-13T06:46:01;15.10;;;10.90;;
77287;SDS011;66345;42.694;23.346;2023-07-13T06:48:26;15.75;;;10.73;;
77287;SDS011;66345;42.694;23.346;2023-07-13T06:50:53;13.17;;;9.37;;
77287;SDS011;66345;42.694;23.346;2023-07-13T06:53:18;12.15;;;8.57;;
77287;SDS011;66345;42.694;23.346;2023-07-13T06:55:45;13.37;;;9.77;;
77287;SDS011;66345;42.694;23.346;2023-07-13T06:58:11;14.93;;;10.57;;
77287;SDS011;66345;42.694;23.346;2023-07-13T07:00:37;14.25;;;9.73;;
77287;SDS011;66345;42.694;23.346;2023-07-13T07:03:02;12.77;;;9.17;;
77287;SDS011;66345;42.694;23.346;2023-07-13T07:05:28;13.03;;;9.23;;
77287;SDS011;66345;42.694;23.346;2023-07-13T07:07:54;15.13;;;9.37;;
77287;SDS011;66345;42.694;23.346;2023-07-13T07:10:20;12.25;;;9.55;;
77287;SDS011;66345;42.694;23.346;2023-07-13T07:12:46;14.07;;;10.20;;
77287;SDS011;66345;42.694;23.346;2023-07-13T07:15:12;11.33;;;9.43;;
77287;SDS011;66345;42.694;23.346;2023-07-13T07:17:39;11.77;;;9.60;;
77287;SDS011;66345;42.694;23.346;2023-07-13T07:20:04;10.40;;;9.30;;
77287;SDS011;66345;42.694;23.346;2023-07-13T07:22:30;11.37;;;9.77;;
77287;SDS011;66345;42.694;23.346;2023-07-13T07:24:56;10.98;;;9.60;;
77287;SDS011;66345;42.694;23.346;2023-07-13T07:27:22;10.85;;;9.43;;
77287;SDS011;66345;42.694;23.346;2023-07-13T07:29:48;13.40;;;9.17;;
77287;SDS011;66345;42.694;23.346;2023-07-13T07:32:13;13.97;;;9.70;;
77287;SDS011;66345;42.694;23.346;2023-07-13T07:34:39;12.27;;;8.77;;
77287;SDS011;66345;42.694;23.346;2023-07-13T07:37:05;11.13;;;9.50;;
77287;SDS011;66345;42.694;23.346;2023-07-13T07:39:30;13.50;;;10.20;;
77287;SDS011;66345;42.694;23.346;2023-07-13T07:41:56;15.68;;;12.13;;
77287;SDS011;66345;42.694;23.346;2023-07-13T07:44:22;13.07;;;10.45;;
77287;SDS011;66345;42.694;23.346;2023-07-13T07:46:47;12.93;;;9.87;;
77287;SDS011;66345;42.694;23.346;2023-07-13T07:49:13;12.32;;;10.00;;
77287;SDS011;66345;42.694;23.346;2023-07-13T07:51:39;12.80;;;10.03;;
77287;SDS011;66345;42.694;23.346;2023-07-13T07:54:04;14.30;;;9.63;;
77287;SDS011;66345;42.694;23.346;2023-07-13T07:56:30;11.30;;;9.73;;
77287;SDS011;66345;42.694;23.346;2023-07-13T07:58:56;11.63;;;9.75;;
77287;SDS011;66345;42.694;23.346;2023-07-13T08:01:22;13.00;;;9.50;;
77287;SDS011;66345;42.694;23.346;2023-07-13T08:03:47;12.95;;;9.95;;
77287;SDS011;66345;42.694;23.346;2023-07-13T08:06:13;10.70;;;9.00;;
77287;SDS011;66345;42.694;23.346;2023-07-13T08:08:38;12.27;;;9.67;;
77287;SDS011;66345;42.694;23.346;2023-07-13T08:11:04;11.27;;;8.57;;
77287;SDS011;66345;42.694;23.346;2023-07-13T08:13:31;11.17;;;8.60;;
77287;SDS011;66345;42.694;23.346;2023-07-13T08:15:56;13.15;;;9.15;;
77287;SDS011;66345;42.694;23.346;2023-07-13T08:18:22;10.97;;;8.87;;
77287;SDS011;66345;42.694;23.346;2023-07-13T08:20:47;14.00;;;9.20;;
77287;SDS011;66345;42.694;23.346;2023-07-13T08:23:13;14.35;;;9.30;;
77287;SDS011;66345;42.694;23.346;2023-07-13T08:25:38;11.87;;;9.50;;
77287;SDS011;66345;42.694;23.346;2023-07-13T08:28:04;15.00;;;9.63;;
77287;SDS011;66345;42.694;23.346;2023-07-13T08:30:29;14.00;;;9.67;;
77287;SDS011;66345;42.694;23.346;2023-07-13T08:32:55;28.67;;;11.57;;
77287;SDS011;66345;42.694;23.346;2023-07-13T08:35:20;13.83;;;8.93;;
77287;SDS011;66345;42.694;23.346;2023-07-13T08:37:46;11.63;;;8.95;;
77287;SDS011;66345;42.694;23.346;2023-07-13T08:40:11;11.13;;;9.97;;
77287;SDS011;66345;42.694;23.346;2023-07-13T08:42:50;14.05;;;10.05;;
77287;SDS011;66345;42.694;23.346;2023-07-13T08:48:01;11.77;;;9.65;;
77287;SDS011;66345;42.694;23.346;2023-07-13T08:50:34;10.85;;;9.75;;
77287;SDS011;66345;42.694;23.346;2023-07-13T08:53:05;13.73;;;9.77;;
77287;SDS011;66345;42.694;23.346;2023-07-13T08:55:35;13.30;;;10.10;;
77287;SDS011;66345;42.694;23.346;2023-07-13T08:58:14;14.63;;;10.17;;
77287;SDS011;66345;42.694;23.346;2023-07-13T09:03:42;13.32;;;9.45;;
77287;SDS011;66345;42.694;23.346;2023-07-13T09:06:18;13.60;;;10.32;;
77287;SDS011;66345;42.694;23.346;2023-07-13T09:13:57;14.70;;;9.77;;
77287;SDS011;66345;42.694;23.346;2023-07-13T09:16:50;14.88;;;10.65;;
77287;SDS011;66345;42.694;23.346;2023-07-13T09:19:20;11.88;;;9.40;;
77287;SDS011;66345;42.694;23.346;2023-07-13T09:21:49;16.85;;;10.25;;
77287;SDS011;66345;42.694;23.346;2023-07-13T09:27:09;15.80;;;12.95;;
77287;SDS011;66345;42.694;23.346;2023-07-13T09:29:42;14.57;;;10.10;;
77287;SDS011;66345;42.694;23.346;2023-07-13T09:32:14;11.73;;;9.85;;
77287;SDS011;66345;42.694;23.346;2023-07-13T09:34:50;13.93;;;9.85;;
77287;SDS011;66345;42.694;23.346;2023-07-13T09:37:23;14.73;;;10.77;;
77287;SDS011;66345;42.694;23.346;2023-07-13T09:39:54;14.13;;;10.57;;
77287;SDS011;66345;42.694;23.346;2023-07-13T09:42:22;13.73;;;10.43;;
77287;SDS011;66345;42.694;23.346;2023-07-13T09:47:17;13.50;;;10.53;;
77287;SDS011;66345;42.694;23.346;2023-07-13T09:49:44;16.38;;;11.55;;
77287;SDS011;66345;42.694;23.346;2023-07-13T09:52:11;12.55;;;10.93;;
77287;SDS011;66345;42.694;23.346;2023-07-13T09:54:39;13.98;;;11.70;;
77287;SDS011;66345;42.694;23.346;2023-07-13T09:57:14;15.25;;;11.65;;
77287;SDS011;66345;42.694;23.346;2023-07-13T09:59:48;15.33;;;11.67;;
77287;SDS011;66345;42.694;23.346;2023-07-13T10:02:32;20.80;;;11.38;;
77287;SDS011;66345;42.694;23.346;2023-07-13T10:07:35;12.35;;;9.68;;
77287;SDS011;66345;42.694;23.346;2023-07-13T10:10:12;19.80;;;14.43;;
77287;SDS011;66345;42.694;23.346;2023-07-13T10:12:43;14.30;;;9.83;;
77287;SDS011;66345;42.694;23.346;2023-07-13T10:15:13;13.95;;;9.25;;
77287;SDS011;66345;42.694;23.346;2023-07-13T10:17:42;12.48;;;9.18;;
77287;SDS011;66345;42.694;23.346;2023-07-13T10:20:09;11.77;;;8.93;;
77287;SDS011;66345;42.694;23.346;2023-07-13T10:25:25;11.03;;;7.57;;
77287;SDS011;66345;42.694;23.346;2023-07-13T10:27:53;10.75;;;7.88;;
77287;SDS011;66345;42.694;23.346;2023-07-13T10:30:31;10.02;;;7.40;;
77287;SDS011;66345;42.694;23.346;2023-07-13T10:33:03;10.05;;;8.52;;
77287;SDS011;66345;42.694;23.346;2023-07-13T10:35:37;9.90;;;8.05;;
77287;SDS011;66345;42.694;23.346;2023-07-13T10:38:06;13.33;;;9.27;;
77287;SDS011;66345;42.694;23.346;2023-07-13T10:43:05;9.77;;;7.53;;
77287;SDS011;66345;42.694;23.346;2023-07-13T10:45:39;10.85;;;6.97;;
77287;SDS011;66345;42.694;23.346;2023-07-13T10:48:05;10.35;;;6.70;;
77287;SDS011;66345;42.694;23.346;2023-07-13T10:50:35;8.00;;;5.50;;
77287;SDS011;66345;42.694;23.346;2023-07-13T10:53:17;8.00;;;5.50;;
77287;SDS011;66345;42.694;23.346;2023-07-13T10:58:37;10.57;;;5.00;;
77287;SDS011;66345;42.694;23.346;2023-07-13T11:01:17;11.80;;;5.17;;
77287;SDS011;66345;42.694;23.346;2023-07-13T11:06:10;8.27;;;4.80;;
77287;SDS011;66345;42.694;23.346;2023-07-13T11:08:39;9.65;;;5.38;;
77287;SDS011;66345;42.694;23.346;2023-07-13T11:18:46;10.40;;;6.18;;
77287;SDS011;66345;42.694;23.346;2023-07-13T11:21:14;11.13;;;4.93;;
77287;SDS011;66345;42.694;23.346;2023-07-13T11:23:44;8.43;;;5.40;;
77287;SDS011;66345;42.694;23.346;2023-07-13T11:29:47;8.27;;;4.78;;
77287;SDS011;66345;42.694;23.346;2023-07-13T11:31:58;8.95;;;4.97;;
77287;SDS011;66345;42.694;23.346;2023-07-13T11:34:27;7.97;;;4.90;;
77287;SDS011;66345;42.694;23.346;2023-07-13T11:36:56;8.57;;;5.13;;
77287;SDS011;66345;42.694;23.346;2023-07-13T11:41:58;7.97;;;4.72;;
77287;SDS011;66345;42.694;23.346;2023-07-13T11:44:28;8.63;;;4.80;;
77287;SDS011;66345;42.694;23.346;2023-07-13T11:46:58;9.53;;;4.97;;
77287;SDS011;66345;42.694;23.346;2023-07-13T11:49:36;9.55;;;5.30;;
77287;SDS011;66345;42.694;23.346;2023-07-13T11:52:10;10.80;;;5.18;;
77287;SDS011;66345;42.694;23.346;2023-07-13T11:54:51;10.07;;;4.68;;
77287;SDS011;66345;42.694;23.346;2023-07-13T11:57:37;11.02;;;5.70;;
77287;SDS011;66345;42.694;23.346;2023-07-13T12:00:15;12.00;;;5.50;;
77287;SDS011;66345;42.694;23.346;2023-07-13T12:02:45;14.07;;;5.72;;
77287;SDS011;66345;42.694;23.346;2023-07-13T12:05:14;9.73;;;5.55;;
77287;SDS011;66345;42.694;23.346;2023-07-13T12:07:43;14.82;;;5.90;;
77287;SDS011;66345;42.694;23.346;2023-07-13T12:12:48;13.00;;;6.30;;
77287;SDS011;66345;42.694;23.346;2023-07-13T12:15:45;8.10;;;4.47;;
77287;SDS011;66345;42.694;23.346;2023-07-13T12:18:15;9.98;;;5.47;;
77287;SDS011;66345;42.694;23.346;2023-07-13T12:20:45;8.23;;;5.05;;
77287;SDS011;66345;42.694;23.346;2023-07-13T12:23:31;12.07;;;5.47;;
77287;SDS011;66345;42.694;23.346;2023-07-13T12:26:01;10.13;;;4.67;;
77287;SDS011;66345;42.694;23.346;2023-07-13T12:28:33;13.13;;;4.82;;
77287;SDS011;66345;42.694;23.346;2023-07-13T12:31:04;9.73;;;5.10;;
77287;SDS011;66345;42.694;23.346;2023-07-13T12:33:32;9.05;;;4.95;;
77287;SDS011;66345;42.694;23.346;2023-07-13T12:36:02;10.63;;;4.30;;
77287;SDS011;66345;42.694;23.346;2023-07-13T12:38:30;8.07;;;4.53;;
77287;SDS011;66345;42.694;23.346;2023-07-13T12:40:57;8.82;;;4.60;;
77287;SDS011;66345;42.694;23.346;2023-07-13T12:43:23;10.55;;;5.00;;
77287;SDS011;66345;42.694;23.346;2023-07-13T12:48:26;11.57;;;5.13;;
77287;SDS011;66345;42.694;23.346;2023-07-13T12:50:52;12.77;;;4.97;;
77287;SDS011;66345;42.694;23.346;2023-07-13T12:53:20;10.77;;;4.85;;
77287;SDS011;66345;42.694;23.346;2023-07-13T12:55:56;14.52;;;4.95;;
77287;SDS011;66345;42.694;23.346;2023-07-13T12:58:27;10.60;;;4.90;;
77287;SDS011;66345;42.694;23.346;2023-07-13T13:00:57;13.80;;;7.27;;
77287;SDS011;66345;42.694;23.346;2023-07-13T13:08:28;11.85;;;6.10;;
77287;SDS011;66345;42.694;23.346;2023-07-13T13:10:55;15.15;;;4.95;;
77287;SDS011;66345;42.694;23.346;2023-07-13T13:13:20;11.30;;;6.17;;
77287;SDS011;66345;42.694;23.346;2023-07-13T13:15:46;9.03;;;4.83;;
77287;SDS011;66345;42.694;23.346;2023-07-13T13:18:22;11.10;;;4.38;;
77287;SDS011;66345;42.694;23.346;2023-07-13T13:20:49;9.65;;;4.53;;
77287;SDS011;66345;42.694;23.346;2023-07-13T13:23:16;9.05;;;4.53;;
77287;SDS011;66345;42.694;23.346;2023-07-13T13:25:44;8.25;;;4.45;;
77287;SDS011;66345;42.694;23.346;2023-07-13T13:28:15;9.50;;;4.47;;
77287;SDS011;66345;42.694;23.346;2023-07-13T13:30:42;11.32;;;4.25;;
77287;SDS011;66345;42.694;23.346;2023-07-13T13:33:12;9.80;;;4.70;;
77287;SDS011;66345;42.694;23.346;2023-07-13T13:35:40;8.77;;;4.50;;
77287;SDS011;66345;42.694;23.346;2023-07-13T13:38:13;11.02;;;4.90;;
77287;SDS011;66345;42.694;23.346;2023-07-13T13:40:40;10.13;;;4.33;;
77287;SDS011;66345;42.694;23.346;2023-07-13T13:43:16;8.43;;;4.35;;
77287;SDS011;66345;42.694;23.346;2023-07-13T13:45:43;11.98;;;5.32;;
77287;SDS011;66345;42.694;23.346;2023-07-13T13:48:29;13.20;;;4.55;;
77287;SDS011;66345;42.694;23.346;2023-07-13T13:50:58;8.57;;;4.43;;
77287;SDS011;66345;42.694;23.346;2023-07-13T13:53:24;9.83;;;4.80;;
77287;SDS011;66345;42.694;23.346;2023-07-13T13:55:50;9.68;;;4.30;;
77287;SDS011;66345;42.694;23.346;2023-07-13T13:58:17;11.05;;;4.72;;
77287;SDS011;66345;42.694;23.346;2023-07-13T14:00:43;10.27;;;4.97;;
77287;SDS011;66345;42.694;23.346;2023-07-13T14:03:28;9.45;;;4.43;;
77287;SDS011;66345;42.694;23.346;2023-07-13T14:05:54;13.35;;;4.50;;
77287;SDS011;66345;42.694;23.346;2023-07-13T14:08:20;12.00;;;4.47;;
77287;SDS011;66345;42.694;23.346;2023-07-13T14:10:47;10.23;;;4.27;;
77287;SDS011;66345;42.694;23.346;2023-07-13T14:13:18;9.15;;;4.65;;
77287;SDS011;66345;42.694;23.346;2023-07-13T14:15:48;10.88;;;4.88;;
77287;SDS011;66345;42.694;23.346;2023-07-13T14:18:14;13.45;;;4.53;;
77287;SDS011;66345;42.694;23.346;2023-07-13T14:20:46;8.27;;;4.10;;
77287;SDS011;66345;42.694;23.346;2023-07-13T14:23:14;10.88;;;4.50;;
77287;SDS011;66345;42.694;23.346;2023-07-13T14:25:41;9.45;;;4.45;;
77287;SDS011;66345;42.694;23.346;2023-07-13T14:28:19;9.35;;;4.90;;
77287;SDS011;66345;42.694;23.346;2023-07-13T14:30:49;10.18;;;4.97;;
77287;SDS011;66345;42.694;23.346;2023-07-13T14:33:15;11.27;;;4.67;;
77287;SDS011;66345;42.694;23.346;2023-07-13T14:35:41;10.25;;;4.57;;
77287;SDS011;66345;42.694;23.346;2023-07-13T14:38:09;10.02;;;4.60;;
77287;SDS011;66345;42.694;23.346;2023-07-13T14:40:37;17.13;;;7.57;;
77287;SDS011;66345;42.694;23.346;2023-07-13T14:43:03;9.70;;;4.33;;
77287;SDS011;66345;42.694;23.346;2023-07-13T14:45:28;9.77;;;4.80;;
77287;SDS011;66345;42.694;23.346;2023-07-13T14:47:56;13.55;;;4.78;;
77287;SDS011;66345;42.694;23.346;2023-07-13T14:50:27;9.75;;;5.72;;
77287;SDS011;66345;42.694;23.346;2023-07-13T14:52:57;12.20;;;4.60;;
77287;SDS011;66345;42.694;23.346;2023-07-13T14:55:22;9.57;;;4.78;;
77287;SDS011;66345;42.694;23.346;2023-07-13T14:57:51;8.10;;;4.47;;
77287;SDS011;66345;42.694;23.346;2023-07-13T15:00:18;10.77;;;4.77;;
77287;SDS011;66345;42.694;23.346;2023-07-13T15:02:53;10.25;;;4.70;;
77287;SDS011;66345;42.694;23.346;2023-07-13T15:05:28;11.35;;;5.93;;
77287;SDS011;66345;42.694;23.346;2023-07-13T15:07:59;10.40;;;4.70;;
77287;SDS011;66345;42.694;23.346;2023-07-13T15:10:30;8.35;;;4.53;;
77287;SDS011;66345;42.694;23.346;2023-07-13T15:13:00;9.57;;;5.75;;
77287;SDS011;66345;42.694;23.346;2023-07-13T15:15:37;11.30;;;4.75;;
77287;SDS011;66345;42.694;23.346;2023-07-13T15:18:05;10.55;;;4.75;;
77287;SDS011;66345;42.694;23.346;2023-07-13T15:20:34;10.47;;;4.80;;
77287;SDS011;66345;42.694;23.346;2023-07-13T15:23:02;10.35;;;4.72;;
77287;SDS011;66345;42.694;23.346;2023-07-13T15:25:28;10.48;;;4.57;;